createdAt,value
2019-06-15T00:01:27.015Z,4.20
2019-06-15T00:04:00.982Z,3.87
2019-06-15T00:06:37.808Z,4.00
2019-06-15T00:09:15.470Z,3.93
2019-06-15T00:11:51.912Z,3.80
2019-06-15T00:14:24.642Z,3.60
2019-06-15T00:16:56.983Z,3.63
2019-06-15T00:19:29.166Z,3.73
2019-06-15T00:22:01.484Z,3.90
2019-06-15T00:24:35.581Z,3.87
2019-06-15T00:27:08.157Z,3.63
2019-06-15T00:29:40.357Z,4.20
2019-06-15T00:32:12.697Z,4.00
2019-06-15T00:34:46.574Z,3.80
2019-06-15T00:37:18.918Z,3.93
2019-06-15T00:39:52.058Z,3.37
2019-06-15T00:42:24.371Z,3.73
2019-06-15T00:44:56.641Z,4.50
2019-06-15T00:47:29.026Z,4.00
2019-06-15T00:50:01.239Z,4.57
2019-06-15T00:52:33.496Z,4.20
2019-06-15T00:55:06.071Z,3.80
2019-06-15T00:57:38.424Z,4.23
2019-06-15T01:00:14.050Z,3.40
2019-06-15T01:02:46.333Z,3.83
2019-06-15T01:05:18.498Z,4.20
2019-06-15T01:07:50.783Z,4.40
2019-06-15T01:10:23.183Z,4.20
2019-06-15T01:12:55.491Z,4.27
2019-06-15T01:15:27.692Z,4.10
2019-06-15T01:17:59.956Z,3.62
2019-06-15T01:20:32.223Z,4.20
2019-06-15T01:23:04.502Z,3.62
2019-06-15T01:25:36.682Z,4.40
2019-06-15T01:28:08.988Z,4.70
2019-06-15T01:30:41.269Z,4.30
2019-06-15T01:33:14.497Z,4.37
2019-06-15T01:35:46.732Z,4.57
2019-06-15T01:38:18.954Z,4.20
2019-06-15T01:40:51.316Z,4.70
2019-06-15T01:43:23.821Z,5.10
2019-06-15T01:45:56.112Z,5.43
2019-06-15T01:48:28.367Z,4.63
2019-06-15T01:51:00.612Z,5.00
2019-06-15T01:53:32.906Z,4.90
2019-06-15T01:56:05.138Z,3.92
2019-06-15T01:58:37.395Z,5.00
2019-06-15T02:01:09.635Z,4.63
2019-06-15T02:03:42.367Z,4.80
2019-06-15T02:06:14.587Z,4.97
2019-06-15T02:08:46.850Z,4.77
2019-06-15T02:11:19.079Z,5.43
2019-06-15T02:13:51.339Z,5.57
2019-06-15T02:16:23.963Z,5.83
2019-06-15T02:18:56.195Z,5.17
2019-06-15T02:21:28.579Z,5.40
2019-06-15T02:24:00.948Z,4.90
2019-06-15T02:26:33.218Z,4.22
2019-06-15T02:29:05.434Z,5.40
2019-06-15T02:31:37.808Z,5.70
2019-06-15T02:34:10.147Z,6.03
2019-06-15T02:36:42.432Z,5.53
2019-06-15T02:39:14.733Z,5.40
2019-06-15T02:41:47.124Z,5.57
2019-06-15T02:44:19.436Z,5.50
2019-06-15T02:46:51.692Z,5.30
2019-06-15T02:49:24.151Z,5.40
2019-06-15T02:51:56.425Z,6.50
2019-06-15T02:54:28.713Z,6.30
2019-06-15T02:57:01.037Z,5.77
2019-06-15T02:59:33.306Z,5.70
2019-06-15T03:02:05.597Z,5.70
2019-06-15T03:04:37.807Z,4.87
2019-06-15T03:07:10.841Z,6.10
2019-06-15T03:09:43.083Z,6.20
2019-06-15T03:12:15.303Z,5.10
2019-06-15T03:14:47.512Z,5.87
2019-06-15T03:17:19.880Z,6.10
2019-06-15T03:19:52.116Z,6.60
2019-06-15T03:22:24.387Z,6.07
2019-06-15T03:24:56.566Z,6.23
2019-06-15T03:27:28.838Z,6.73
2019-06-15T03:30:00.997Z,7.00
2019-06-15T03:32:36.556Z,7.07
2019-06-15T03:35:09.567Z,6.40
2019-06-15T03:37:41.782Z,6.13
2019-06-15T03:40:14.110Z,6.70
2019-06-15T03:42:46.398Z,6.80
2019-06-15T03:45:18.637Z,6.67
2019-06-15T03:47:50.888Z,6.80
2019-06-15T03:50:36.417Z,8.10
2019-06-15T03:53:20.161Z,7.27
2019-06-15T03:55:52.457Z,6.63
2019-06-15T03:58:24.711Z,7.27
2019-06-15T04:01:33.163Z,8.70
2019-06-15T04:04:05.387Z,11.60
2019-06-15T04:06:37.611Z,9.10
2019-06-15T04:09:09.863Z,8.17
2019-06-15T04:11:42.175Z,7.90
2019-06-15T04:14:14.367Z,8.13
2019-06-15T04:16:46.684Z,7.23
2019-06-15T04:19:18.947Z,8.83
2019-06-15T04:21:51.189Z,7.67
2019-06-15T04:24:23.443Z,7.47
2019-06-15T04:26:55.711Z,6.62
2019-06-15T04:29:28.592Z,6.77
2019-06-15T04:32:00.862Z,7.73
2019-06-15T04:34:33.123Z,9.50
2019-06-15T04:37:05.393Z,9.87
2019-06-15T04:39:37.646Z,7.70
2019-06-15T04:42:09.959Z,7.23
2019-06-15T04:44:42.179Z,7.87
2019-06-15T04:47:14.407Z,8.80
2019-06-15T04:49:46.580Z,8.17
2019-06-15T04:52:18.800Z,7.97
2019-06-15T04:54:51.023Z,7.67
2019-06-15T04:57:23.303Z,7.20
2019-06-15T04:59:55.503Z,8.17
2019-06-15T05:02:27.884Z,10.20
2019-06-15T05:05:00.174Z,13.20
2019-06-15T05:07:32.467Z,11.73
2019-06-15T05:10:05.782Z,14.33
2019-06-15T05:12:38.039Z,14.13
2019-06-15T05:15:11.452Z,15.20
2019-06-15T05:17:46.287Z,20.13
2019-06-15T05:20:18.842Z,20.00
2019-06-15T05:22:51.150Z,19.27
2019-06-15T05:25:23.398Z,16.17
2019-06-15T05:27:55.705Z,17.67
2019-06-15T05:30:27.942Z,15.70
2019-06-15T05:33:00.267Z,18.27
2019-06-15T05:35:32.585Z,18.70
2019-06-15T05:38:05.056Z,15.13
2019-06-15T05:40:37.288Z,14.67
2019-06-15T05:43:11.096Z,19.77
2019-06-15T05:45:46.783Z,17.37
2019-06-15T05:48:22.421Z,18.47
2019-06-15T05:50:54.919Z,14.60
2019-06-15T05:53:27.349Z,14.83
2019-06-15T05:56:00.024Z,16.33
2019-06-15T05:58:32.447Z,14.70
2019-06-15T06:01:06.245Z,16.47
2019-06-15T06:03:39.419Z,16.13
2019-06-15T06:06:11.785Z,16.30
2019-06-15T06:08:44.127Z,14.00
2019-06-15T06:11:21.563Z,19.73
2019-06-15T06:13:55.035Z,19.87
2019-06-15T06:16:27.465Z,14.03
2019-06-15T06:19:00.132Z,10.57
2019-06-15T06:21:32.460Z,10.10
2019-06-15T06:24:04.809Z,11.03
2019-06-15T06:26:37.067Z,13.97
2019-06-15T06:29:09.325Z,15.27
2019-06-15T06:31:42.135Z,14.07
2019-06-15T06:34:15.240Z,13.67
2019-06-15T06:36:47.501Z,15.57
2019-06-15T06:39:19.797Z,15.40
2019-06-15T06:41:52.074Z,13.13
2019-06-15T06:44:24.402Z,15.13
2019-06-15T06:46:56.724Z,12.97
2019-06-15T06:49:31.406Z,12.87
2019-06-15T06:52:16.694Z,14.23
2019-06-15T06:54:49.660Z,10.73
2019-06-15T06:57:21.931Z,16.27
2019-06-15T06:59:54.323Z,17.17
2019-06-15T07:02:26.628Z,16.17
2019-06-15T07:04:59.063Z,14.90
2019-06-15T07:07:31.783Z,12.93
2019-06-15T07:10:06.434Z,16.50
2019-06-15T07:12:38.731Z,14.00
2019-06-15T07:15:11.045Z,12.27
2019-06-15T07:17:45.251Z,11.93
2019-06-15T07:20:17.722Z,12.05
2019-06-15T07:22:50.082Z,12.60
2019-06-15T07:25:22.398Z,11.70
2019-06-15T07:28:07.177Z,10.63
2019-06-15T07:30:41.346Z,12.80
2019-06-15T07:33:15.037Z,12.70
2019-06-15T07:35:47.556Z,10.73
2019-06-15T07:38:20.006Z,10.17
2019-06-15T07:40:52.231Z,11.20
2019-06-15T07:43:25.344Z,9.47
2019-06-15T07:45:58.191Z,8.23
2019-06-15T07:48:30.502Z,7.50
2019-06-15T07:51:02.802Z,7.93
2019-06-15T07:53:35.147Z,7.27
2019-06-15T07:56:07.371Z,6.20
2019-06-15T07:58:39.670Z,6.00
2019-06-15T08:01:12.758Z,5.20
2019-06-15T08:03:45.035Z,4.90
2019-06-15T08:06:17.263Z,5.90
2019-06-15T08:08:49.529Z,5.23
2019-06-15T08:11:21.775Z,5.33
2019-06-15T08:13:54.096Z,4.67
2019-06-15T08:16:26.939Z,5.33
2019-06-15T08:18:59.161Z,5.50
2019-06-15T08:21:32.027Z,5.23
2019-06-15T08:24:06.141Z,4.40
2019-06-15T08:26:38.454Z,4.70
2019-06-15T08:29:10.794Z,4.40
2019-06-15T08:31:43.850Z,4.03
2019-06-15T08:34:16.083Z,3.83
2019-06-15T08:36:49.325Z,3.33
2019-06-15T08:39:21.573Z,3.30
2019-06-15T08:41:56.786Z,2.97
2019-06-15T08:44:29.357Z,3.03
2019-06-15T08:47:02.425Z,2.43
2019-06-15T08:49:34.696Z,2.90
2019-06-15T08:52:07.037Z,2.27
2019-06-15T08:54:39.349Z,2.30
2019-06-15T08:57:19.714Z,2.20
2019-06-15T08:59:52.148Z,2.00
2019-06-15T09:02:24.472Z,2.40
2019-06-15T09:04:57.925Z,2.17
2019-06-15T09:07:30.204Z,2.00
2019-06-15T09:10:02.528Z,2.27
2019-06-15T09:12:34.876Z,2.20
2019-06-15T09:15:07.298Z,2.05
2019-06-15T09:17:38.856Z,2.10
2019-06-15T09:20:11.245Z,2.10
2019-06-15T09:22:43.482Z,2.10
2019-06-15T09:25:15.827Z,1.77
2019-06-15T09:27:49.595Z,1.70
2019-06-15T09:30:22.053Z,2.40
2019-06-15T09:32:54.975Z,2.90
2019-06-15T09:35:27.208Z,3.07
2019-06-15T09:37:59.532Z,2.63
2019-06-15T09:40:31.889Z,2.83
2019-06-15T09:43:04.851Z,3.57
2019-06-15T09:45:39.592Z,3.23
2019-06-15T09:48:11.935Z,4.10
2019-06-15T09:50:46.864Z,4.13
2019-06-15T09:53:19.585Z,4.80
2019-06-15T09:55:51.941Z,4.70
2019-06-15T09:58:24.215Z,4.63
2019-06-15T10:00:58.692Z,4.43
2019-06-15T10:03:33.843Z,5.20
2019-06-15T10:06:11.606Z,4.87
2019-06-15T10:08:46.402Z,5.77
2019-06-15T10:11:18.623Z,4.90
2019-06-15T10:13:50.867Z,5.47
2019-06-15T10:16:24.960Z,5.17
2019-06-15T10:18:57.382Z,4.70
2019-06-15T10:21:30.750Z,4.73
2019-06-15T10:24:03.739Z,3.97
2019-06-15T10:26:36.266Z,4.33
2019-06-15T10:29:13.356Z,3.80
2019-06-15T10:31:45.605Z,3.30
2019-06-15T10:34:17.997Z,4.30
2019-06-15T10:36:50.732Z,3.27
2019-06-15T10:39:24.825Z,3.00
2019-06-15T10:41:57.120Z,2.67
2019-06-15T10:44:30.499Z,3.07
2019-06-15T10:47:08.340Z,2.60
2019-06-15T10:49:41.933Z,2.70
2019-06-15T10:52:14.189Z,2.30
2019-06-15T10:54:46.467Z,2.00
2019-06-15T10:57:18.836Z,2.20
2019-06-15T10:59:57.444Z,1.90
2019-06-15T11:02:30.256Z,1.60
2019-06-15T11:05:03.286Z,1.67
2019-06-15T11:07:35.763Z,1.60
2019-06-15T11:10:13.792Z,1.73
2019-06-15T11:12:47.109Z,1.90
2019-06-15T11:15:28.520Z,1.60
2019-06-15T11:18:00.861Z,1.60
2019-06-15T11:20:33.406Z,1.67
2019-06-15T11:23:05.709Z,1.90
2019-06-15T11:25:39.682Z,1.90
2019-06-15T11:28:16.088Z,2.00
2019-06-15T11:30:50.557Z,1.73
2019-06-15T11:33:22.935Z,1.60
2019-06-15T11:35:55.222Z,1.50
2019-06-15T11:38:27.689Z,1.57
2019-06-15T11:40:59.915Z,1.70
2019-06-15T11:43:32.409Z,1.60
2019-06-15T11:46:04.730Z,1.70
2019-06-15T11:48:37.048Z,1.30
2019-06-15T11:51:09.302Z,1.70
2019-06-15T11:53:41.549Z,1.50
2019-06-15T11:56:13.906Z,1.37
2019-06-15T11:58:46.128Z,1.37
2019-06-15T12:01:19.068Z,1.30
2019-06-15T12:03:51.471Z,1.50
2019-06-15T12:06:23.737Z,1.20
2019-06-15T12:08:55.982Z,1.30
2019-06-15T12:11:28.277Z,1.33
2019-06-15T12:14:00.564Z,1.40
2019-06-15T12:16:32.961Z,1.30
2019-06-15T12:19:05.261Z,1.40
2019-06-15T12:21:37.519Z,1.20
2019-06-15T12:24:09.740Z,1.40
2019-06-15T12:26:42.091Z,1.20
2019-06-15T12:29:14.315Z,1.37
2019-06-15T12:31:47.695Z,1.20
2019-06-15T12:34:21.212Z,1.20
2019-06-15T12:36:53.679Z,1.35
2019-06-15T12:39:25.976Z,1.30
2019-06-15T12:41:57.513Z,1.43
2019-06-15T12:44:29.923Z,1.37
2019-06-15T12:47:02.341Z,1.40
2019-06-15T12:49:34.596Z,1.30
2019-06-15T12:52:06.867Z,1.37
2019-06-15T12:54:39.112Z,1.40
2019-06-15T12:57:11.350Z,1.60
2019-06-15T12:59:43.706Z,1.20
2019-06-15T13:02:17.056Z,1.30
2019-06-15T13:04:49.601Z,1.60
2019-06-15T13:07:21.896Z,1.10
2019-06-15T13:09:54.196Z,1.60
2019-06-15T13:12:26.516Z,1.40
2019-06-15T13:14:58.781Z,1.20
2019-06-15T13:17:31.152Z,1.30
2019-06-15T13:20:35.594Z,1.10
2019-06-15T13:23:08.214Z,1.30
2019-06-15T13:25:40.860Z,1.40
2019-06-15T13:28:13.611Z,1.10
2019-06-15T13:30:46.616Z,1.50
2019-06-15T13:33:19.123Z,1.40
2019-06-15T13:35:52.556Z,1.40
2019-06-15T13:38:25.494Z,1.53
2019-06-15T13:40:58.129Z,1.30
2019-06-15T13:43:30.783Z,1.03
2019-06-15T13:46:03.481Z,1.27
2019-06-15T13:48:36.185Z,1.37
2019-06-15T13:51:08.812Z,1.50
2019-06-15T13:53:41.417Z,1.50
2019-06-15T13:56:14.044Z,1.65
2019-06-15T13:58:46.675Z,1.20
2019-06-15T14:01:33.304Z,1.42
2019-06-15T14:04:07.023Z,1.50
2019-06-15T14:06:39.629Z,1.30
2019-06-15T14:09:12.137Z,1.27
2019-06-15T14:11:45.428Z,1.40
2019-06-15T14:14:18.159Z,1.30
2019-06-15T14:16:51.560Z,1.10
2019-06-15T14:19:24.862Z,1.40
2019-06-15T14:21:57.550Z,1.50
2019-06-15T14:24:30.233Z,1.63
2019-06-15T14:27:02.930Z,1.50
2019-06-15T14:29:36.057Z,1.40
2019-06-15T14:32:08.619Z,1.60
2019-06-15T14:34:41.217Z,1.30
2019-06-15T14:37:14.754Z,1.40
2019-06-15T14:39:47.993Z,1.30
2019-06-15T14:42:20.614Z,1.42
2019-06-15T14:44:53.327Z,1.67
2019-06-15T14:47:26.005Z,2.10
2019-06-15T14:50:00.368Z,1.90
2019-06-15T14:52:32.920Z,1.70
2019-06-15T14:55:07.329Z,2.40
2019-06-15T14:57:40.237Z,1.90
2019-06-15T15:00:16.699Z,1.90
2019-06-15T15:02:49.804Z,2.10
2019-06-15T15:05:22.479Z,2.00
2019-06-15T15:07:56.219Z,1.90
2019-06-15T15:10:29.017Z,1.90
2019-06-15T15:13:01.858Z,1.77
2019-06-15T15:15:36.273Z,1.90
2019-06-15T15:18:09.379Z,2.10
2019-06-15T15:20:41.900Z,1.87
2019-06-15T15:23:14.501Z,1.87
2019-06-15T15:25:48.063Z,1.70
2019-06-15T15:28:20.560Z,1.97
2019-06-15T15:31:07.591Z,1.90
2019-06-15T15:33:40.712Z,1.80
2019-06-15T15:36:16.885Z,1.83
2019-06-15T15:38:49.683Z,2.10
2019-06-15T15:41:26.426Z,2.30
2019-06-15T15:43:59.055Z,2.00
2019-06-15T15:46:32.242Z,2.00
2019-06-15T15:49:06.899Z,2.10
2019-06-15T15:51:40.515Z,2.20
2019-06-15T15:54:14.248Z,2.30
2019-06-15T15:56:50.160Z,2.10
2019-06-15T15:59:22.799Z,2.00
2019-06-15T16:01:56.617Z,2.20
2019-06-15T16:04:29.069Z,1.93
2019-06-15T16:07:01.346Z,2.27
2019-06-15T16:09:35.927Z,2.13
2019-06-15T16:12:08.430Z,1.90
2019-06-15T16:14:40.658Z,2.13
2019-06-15T16:17:13.044Z,2.10
2019-06-15T16:19:45.392Z,2.30
2019-06-15T16:22:17.710Z,2.23
2019-06-15T16:24:57.940Z,2.10
2019-06-15T16:27:31.440Z,2.23
2019-06-15T16:30:06.454Z,2.17
2019-06-15T16:32:59.968Z,1.85
2019-06-15T16:35:36.087Z,1.70
2019-06-15T16:38:11.532Z,1.70
2019-06-15T16:40:46.929Z,2.13
2019-06-15T16:43:20.391Z,2.10
2019-06-15T16:45:52.769Z,2.10
2019-06-15T16:48:26.158Z,2.03
2019-06-15T16:50:59.027Z,2.10
2019-06-15T16:53:31.448Z,2.00
2019-06-15T16:56:06.045Z,1.90
2019-06-15T16:58:38.620Z,1.90
2019-06-15T17:01:11.013Z,1.87
2019-06-15T17:03:43.440Z,1.93
2019-06-15T17:06:15.754Z,2.07
2019-06-15T17:08:49.064Z,1.90
2019-06-15T17:11:22.415Z,1.60
2019-06-15T17:13:57.816Z,1.63
2019-06-15T17:16:30.170Z,1.90
2019-06-15T17:19:06.855Z,1.83
2019-06-15T17:21:40.663Z,1.40
2019-06-15T17:24:16.939Z,1.83
2019-06-15T17:26:51.777Z,1.87
2019-06-15T17:29:28.466Z,1.90
2019-06-15T17:32:03.100Z,1.67
2019-06-15T17:34:36.402Z,1.90
2019-06-15T17:37:09.131Z,1.70
2019-06-15T17:39:42.223Z,2.10
2019-06-15T17:42:16.417Z,2.00
2019-06-15T17:44:50.108Z,1.90
2019-06-15T17:47:22.557Z,2.10
2019-06-15T17:49:56.234Z,2.10
2019-06-15T17:52:28.763Z,2.03
2019-06-15T17:55:03.827Z,1.90
2019-06-15T17:57:36.153Z,1.70
2019-06-15T18:00:09.312Z,1.83
2019-06-15T18:02:41.592Z,2.00
2019-06-15T18:05:13.918Z,2.10
2019-06-15T18:07:46.949Z,2.37
2019-06-15T18:10:19.511Z,2.27
2019-06-15T18:12:51.922Z,2.10
2019-06-15T18:15:26.443Z,2.00
2019-06-15T18:17:59.086Z,1.50
2019-06-15T18:20:31.389Z,1.33
2019-06-15T18:23:05.882Z,1.70
2019-06-15T18:25:42.429Z,1.97
2019-06-15T18:28:17.868Z,1.90
2019-06-15T18:30:51.164Z,1.48
2019-06-15T18:33:27.213Z,1.20
2019-06-15T18:36:00.319Z,1.20
2019-06-15T18:38:32.614Z,2.10
2019-06-15T18:41:07.093Z,1.87
2019-06-15T18:43:39.689Z,2.20
2019-06-15T18:46:12.163Z,1.90
2019-06-15T18:48:46.876Z,1.90
2019-06-15T18:51:22.660Z,2.03
2019-06-15T18:53:56.210Z,1.90
2019-06-15T18:56:28.643Z,2.40
2019-06-15T18:59:01.015Z,1.98
2019-06-15T19:01:33.973Z,2.90
2019-06-15T19:04:06.757Z,2.80
2019-06-15T19:06:46.612Z,2.77
2019-06-15T19:09:19.792Z,2.80
2019-06-15T19:11:56.605Z,2.47
2019-06-15T19:14:32.193Z,2.70
2019-06-15T19:17:06.058Z,2.53
2019-06-15T19:19:42.293Z,2.20
2019-06-15T19:22:17.139Z,2.47
2019-06-15T19:24:50.626Z,2.70
2019-06-15T19:27:25.961Z,2.67
2019-06-15T19:30:00.926Z,2.90
2019-06-15T19:32:36.873Z,2.25
2019-06-15T19:35:09.854Z,2.43
2019-06-15T19:37:43.257Z,2.43
2019-06-15T19:40:16.165Z,3.00
2019-06-15T19:42:52.651Z,2.77
2019-06-15T19:45:37.473Z,4.07
2019-06-15T19:48:31.595Z,6.63
2019-06-15T19:51:04.084Z,5.03
2019-06-15T19:53:36.553Z,5.03
2019-06-15T19:56:08.899Z,4.80
2019-06-15T19:58:42.050Z,4.35
2019-06-15T20:01:28.241Z,5.47
2019-06-15T20:04:06.551Z,4.43
2019-06-15T20:06:43.351Z,4.00
2019-06-15T20:09:16.393Z,3.23
2019-06-15T20:11:49.699Z,3.83
2019-06-15T20:14:22.119Z,3.47
2019-06-15T20:16:56.103Z,3.60
2019-06-15T20:19:29.511Z,3.07
2019-06-15T20:22:03.167Z,3.23
2019-06-15T20:24:36.447Z,3.37
2019-06-15T20:27:10.461Z,2.70
2019-06-15T20:29:47.741Z,3.40
2019-06-15T20:32:21.437Z,2.77
2019-06-15T20:34:55.818Z,3.20
2019-06-15T20:37:28.263Z,3.10
2019-06-15T20:40:04.670Z,2.80
2019-06-15T20:42:38.123Z,2.77
2019-06-15T20:45:10.623Z,2.90
2019-06-15T20:47:49.492Z,2.40
2019-06-15T20:50:28.205Z,2.80
2019-06-15T20:53:07.202Z,2.73
2019-06-15T20:55:41.033Z,2.63
2019-06-15T20:58:16.686Z,3.10
2019-06-15T21:00:51.203Z,2.80
2019-06-15T21:03:26.881Z,3.50
2019-06-15T21:05:59.860Z,4.90
2019-06-15T21:08:33.265Z,3.57
2019-06-15T21:11:07.140Z,3.27
2019-06-15T21:13:40.910Z,3.03
2019-06-15T21:16:13.645Z,2.97
2019-06-15T21:18:46.894Z,3.10
2019-06-15T21:21:19.744Z,3.30
2019-06-15T21:23:52.342Z,3.40
2019-06-15T21:26:27.014Z,3.00
2019-06-15T21:28:59.577Z,3.23
2019-06-15T21:31:36.605Z,3.70
2019-06-15T21:34:09.697Z,3.30
2019-06-15T21:36:42.047Z,3.23
2019-06-15T21:39:15.590Z,3.67
2019-06-15T21:41:50.746Z,3.23
2019-06-15T21:44:26.562Z,3.17
2019-06-15T21:47:06.811Z,3.17
2019-06-15T21:49:40.202Z,2.67
2019-06-15T21:52:13.280Z,3.13
2019-06-15T21:54:46.794Z,3.57
2019-06-15T21:57:19.355Z,3.30
2019-06-15T21:59:50.913Z,3.33
2019-06-15T22:02:26.621Z,3.50
2019-06-15T22:04:59.158Z,3.80
2019-06-15T22:07:32.112Z,3.23
2019-06-15T22:10:06.496Z,3.30
2019-06-15T22:12:39.045Z,3.90
2019-06-15T22:15:15.965Z,3.30
2019-06-15T22:17:48.505Z,3.57
2019-06-15T22:20:20.824Z,3.80
2019-06-15T22:22:53.206Z,4.00
2019-06-15T22:25:26.787Z,4.43
2019-06-15T22:27:59.044Z,4.20
2019-06-15T22:30:31.425Z,4.30
2019-06-15T22:33:03.689Z,4.20
2019-06-15T22:35:36.405Z,4.33
2019-06-15T22:38:08.858Z,4.40
2019-06-15T22:40:46.997Z,4.37
2019-06-15T22:43:20.162Z,4.00
2019-06-15T22:45:52.434Z,4.70
2019-06-15T22:48:27.036Z,4.20
2019-06-15T22:51:00.208Z,4.60
2019-06-15T22:53:32.659Z,4.73
2019-06-15T22:56:06.595Z,4.40
2019-06-15T22:58:39.369Z,4.50
2019-06-15T23:01:11.884Z,4.17
2019-06-15T23:03:46.315Z,4.57
2019-06-15T23:06:31.186Z,4.57
2019-06-15T23:09:09.425Z,5.10
2019-06-15T23:11:41.797Z,4.70
2019-06-15T23:14:13.742Z,4.47
2019-06-15T23:16:47.482Z,4.70
2019-06-15T23:19:20.230Z,4.57
2019-06-15T23:21:52.591Z,4.43
2019-06-15T23:24:27.100Z,4.73
2019-06-15T23:26:59.566Z,4.67
2019-06-15T23:29:31.900Z,4.93
2019-06-15T23:32:06.309Z,4.10
2019-06-15T23:34:38.822Z,4.30
2019-06-15T23:37:15.782Z,4.20
2019-06-15T23:39:55.686Z,4.37
2019-06-15T23:42:29.452Z,4.47
2019-06-15T23:45:01.791Z,4.33
2019-06-15T23:47:36.889Z,4.40
2019-06-15T23:50:09.478Z,4.30
2019-06-15T23:52:42.125Z,4.10
2019-06-15T23:55:14.555Z,4.57
2019-06-15T23:57:49.300Z,4.20
